createdAt,value
2022-08-26T00:02:11.236Z,14.55
2022-08-26T00:04:38.544Z,16.17
2022-08-26T00:07:06.301Z,13.93
2022-08-26T00:09:33.938Z,16.48
2022-08-26T00:12:07.777Z,12.15
2022-08-26T00:14:36.735Z,22.00
2022-08-26T00:17:04.650Z,14.13
2022-08-26T00:19:32.649Z,12.18
2022-08-26T00:21:59.907Z,14.38
2022-08-26T00:24:27.225Z,14.52
2022-08-26T00:26:54.709Z,16.27
2022-08-26T00:29:22.403Z,16.77
2022-08-26T00:31:50.315Z,16.73
2022-08-26T00:34:19.313Z,11.23
2022-08-26T00:36:49.293Z,17.20
2022-08-26T00:39:20.943Z,14.30
2022-08-26T00:41:48.989Z,14.02
2022-08-26T00:44:17.445Z,13.65
2022-08-26T00:47:20.238Z,16.08
2022-08-26T00:49:51.481Z,13.07
2022-08-26T00:52:23.079Z,14.18
2022-08-26T00:55:00.681Z,16.38
2022-08-26T00:57:28.835Z,17.63
2022-08-26T01:00:01.413Z,18.80
2022-08-26T01:02:29.701Z,14.48
2022-08-26T01:05:01.461Z,15.52
2022-08-26T01:07:34.750Z,14.07
2022-08-26T01:10:08.571Z,13.98
2022-08-26T01:12:44.967Z,14.15
2022-08-26T01:15:20.838Z,18.40
2022-08-26T01:17:49.926Z,18.98
2022-08-26T01:20:38.119Z,14.13
2022-08-26T01:23:09.872Z,12.45
2022-08-26T01:25:46.677Z,18.92
2022-08-26T01:28:36.863Z,17.08
2022-08-26T01:31:09.838Z,13.05
2022-08-26T01:33:55.116Z,13.68
2022-08-26T01:36:23.893Z,20.98
2022-08-26T01:38:51.901Z,14.82
2022-08-26T01:41:27.221Z,12.65
2022-08-26T01:43:58.008Z,15.60
2022-08-26T01:46:30.164Z,15.05
2022-08-26T01:49:03.180Z,15.90
2022-08-26T01:51:37.625Z,21.88
2022-08-26T01:54:11.794Z,15.88
2022-08-26T01:56:39.892Z,15.68
2022-08-26T01:59:13.817Z,22.77
2022-08-26T02:01:41.270Z,13.90
2022-08-26T02:04:21.525Z,13.75
2022-08-26T02:06:49.349Z,14.57
2022-08-26T02:09:19.898Z,16.77
2022-08-26T02:11:48.716Z,17.38
2022-08-26T02:14:26.898Z,13.35
2022-08-26T02:16:56.268Z,17.75
2022-08-26T02:19:30.784Z,16.67
2022-08-26T02:22:04.237Z,18.55
2022-08-26T02:24:54.853Z,20.02
2022-08-26T02:27:28.148Z,20.38
2022-08-26T02:30:11.931Z,17.92
2022-08-26T02:32:40.184Z,15.85
2022-08-26T02:35:12.883Z,16.02
2022-08-26T02:37:41.885Z,14.85
2022-08-26T02:40:14.375Z,14.13
2022-08-26T02:42:42.339Z,13.32
2022-08-26T02:45:10.999Z,16.13
2022-08-26T02:47:39.359Z,12.00
2022-08-26T02:50:07.602Z,19.02
2022-08-26T02:52:35.369Z,15.68
2022-08-26T02:55:03.833Z,14.00
2022-08-26T02:57:31.393Z,15.27
2022-08-26T03:00:01.359Z,13.10
2022-08-26T03:02:29.391Z,14.25
2022-08-26T03:04:58.033Z,13.55
2022-08-26T03:07:29.877Z,14.85
2022-08-26T03:09:58.858Z,13.48
2022-08-26T03:12:26.489Z,13.13
2022-08-26T03:14:53.964Z,11.52
2022-08-26T03:17:21.491Z,11.70
2022-08-26T03:19:51.832Z,13.63
2022-08-26T03:22:22.063Z,16.20
2022-08-26T03:24:50.377Z,15.32
2022-08-26T03:27:18.301Z,14.15
2022-08-26T03:30:04.334Z,19.08
2022-08-26T03:32:32.072Z,12.00
2022-08-26T03:34:59.760Z,11.32
2022-08-26T03:37:27.273Z,12.77
2022-08-26T03:39:55.157Z,10.80
2022-08-26T03:42:22.504Z,9.50
2022-08-26T03:44:51.587Z,11.98
2022-08-26T03:47:19.474Z,10.80
2022-08-26T03:49:46.828Z,12.80
2022-08-26T03:52:14.508Z,12.00
2022-08-26T03:54:42.008Z,15.40
2022-08-26T03:57:10.848Z,15.00
2022-08-26T03:59:38.081Z,10.25
2022-08-26T04:02:11.608Z,10.68
2022-08-26T04:04:40.334Z,11.73
2022-08-26T04:07:07.678Z,11.73
2022-08-26T04:09:35.706Z,12.25
2022-08-26T04:12:04.101Z,10.07
2022-08-26T04:14:32.585Z,15.90
2022-08-26T04:17:00.130Z,13.88
2022-08-26T04:19:27.371Z,11.68
2022-08-26T04:21:54.743Z,13.00
2022-08-26T04:24:25.985Z,11.60
2022-08-26T04:26:56.647Z,10.63
2022-08-26T04:29:26.876Z,9.60
2022-08-26T04:31:56.167Z,11.82
2022-08-26T04:34:28.455Z,9.07
2022-08-26T04:36:57.932Z,10.13
2022-08-26T04:39:25.673Z,9.38
2022-08-26T04:41:55.718Z,10.88
2022-08-26T04:44:29.301Z,11.80
2022-08-26T04:46:58.614Z,11.18
2022-08-26T04:49:27.521Z,9.18
2022-08-26T04:51:55.220Z,6.03
2022-08-26T04:54:23.284Z,8.90
2022-08-26T04:56:52.873Z,13.65
2022-08-26T04:59:20.531Z,15.43
2022-08-26T05:01:52.598Z,14.73
2022-08-26T05:04:21.306Z,7.45
2022-08-26T05:06:50.655Z,7.75
2022-08-26T05:09:20.283Z,7.03
2022-08-26T05:11:52.192Z,8.70
2022-08-26T05:14:23.326Z,7.88
2022-08-26T05:16:51.304Z,7.95
2022-08-26T05:19:19.472Z,10.15
2022-08-26T05:21:48.775Z,9.15
2022-08-26T05:24:18.023Z,12.63
2022-08-26T05:26:47.314Z,8.43
2022-08-26T05:29:17.034Z,10.38
2022-08-26T05:31:44.474Z,11.25
2022-08-26T05:34:12.729Z,12.13
2022-08-26T05:36:40.315Z,9.45
2022-08-26T05:39:10.352Z,10.00
2022-08-26T05:41:41.579Z,8.32
2022-08-26T05:44:14.010Z,11.68
2022-08-26T05:46:42.590Z,8.80
2022-08-26T05:49:14.610Z,6.25
2022-08-26T05:51:47.644Z,6.15
2022-08-26T05:54:21.263Z,7.55
2022-08-26T05:56:51.828Z,7.40
2022-08-26T05:59:24.323Z,6.30
2022-08-26T06:01:54.858Z,8.18
2022-08-26T06:04:27.539Z,6.80
2022-08-26T06:06:58.100Z,6.63
2022-08-26T06:09:30.835Z,8.65
2022-08-26T06:11:58.961Z,9.20
2022-08-26T06:14:26.411Z,8.07
2022-08-26T06:16:53.704Z,8.10
2022-08-26T06:19:22.070Z,7.20
2022-08-26T06:21:54.684Z,8.23
2022-08-26T06:24:41.384Z,9.02
2022-08-26T06:27:13.661Z,7.60
2022-08-26T06:29:41.935Z,11.07
2022-08-26T06:32:09.384Z,6.82
2022-08-26T06:34:36.928Z,5.90
2022-08-26T06:37:06.437Z,7.20
2022-08-26T06:39:34.314Z,9.50
2022-08-26T06:42:03.262Z,8.07
2022-08-26T06:44:33.729Z,9.02
2022-08-26T06:47:01.195Z,9.00
2022-08-26T06:49:28.777Z,5.32
2022-08-26T06:52:00.143Z,6.82
2022-08-26T06:54:31.816Z,8.02
2022-08-26T06:56:59.787Z,5.38
2022-08-26T06:59:27.394Z,5.65
2022-08-26T07:01:55.236Z,7.63
2022-08-26T07:04:24.708Z,4.93
2022-08-26T07:06:53.731Z,4.43
2022-08-26T07:09:25.533Z,4.60
2022-08-26T07:11:56.295Z,6.95
2022-08-26T07:14:26.212Z,7.55
2022-08-26T07:16:54.271Z,8.95
2022-08-26T07:19:30.464Z,6.85
2022-08-26T07:22:04.872Z,6.57
2022-08-26T07:24:40.368Z,7.63
2022-08-26T07:27:15.131Z,8.60
2022-08-26T07:29:43.776Z,7.43
2022-08-26T07:32:15.201Z,7.57
2022-08-26T07:34:43.732Z,6.38
2022-08-26T07:37:11.817Z,11.00
2022-08-26T07:39:41.746Z,5.93
2022-08-26T07:42:14.243Z,8.70
2022-08-26T07:44:43.883Z,7.05
2022-08-26T07:47:25.494Z,6.47
2022-08-26T07:49:57.661Z,49.17
2022-08-26T07:52:28.908Z,21.13
2022-08-26T07:55:00.368Z,13.68
2022-08-26T07:57:29.421Z,7.15
2022-08-26T07:59:57.726Z,6.70
2022-08-26T08:02:28.532Z,11.70
2022-08-26T08:04:57.910Z,7.75
2022-08-26T08:07:44.722Z,9.13
2022-08-26T08:10:18.851Z,7.47
2022-08-26T08:12:50.485Z,6.25
2022-08-26T08:15:24.999Z,7.30
2022-08-26T08:17:54.049Z,9.38
2022-08-26T08:20:23.975Z,5.60
2022-08-26T08:22:53.515Z,6.55
2022-08-26T08:25:22.380Z,7.72
2022-08-26T08:27:50.186Z,7.90
2022-08-26T08:30:23.072Z,8.02
2022-08-26T08:32:52.472Z,5.82
2022-08-26T08:35:22.667Z,5.50
2022-08-26T08:37:54.463Z,6.50
2022-08-26T08:40:26.364Z,9.32
2022-08-26T08:43:07.267Z,7.18
2022-08-26T08:45:52.735Z,9.32
2022-08-26T08:48:27.350Z,6.38
2022-08-26T08:51:41.499Z,4.20
2022-08-26T08:54:10.502Z,8.40
2022-08-26T08:56:53.373Z,6.40
2022-08-26T08:59:34.420Z,4.75
2022-08-26T09:02:25.810Z,7.70
2022-08-26T09:05:40.232Z,6.97
2022-08-26T09:08:32.763Z,8.15
2022-08-26T09:11:03.864Z,7.80
2022-08-26T09:13:32.004Z,5.75
2022-08-26T09:16:24.491Z,7.55
2022-08-26T09:19:30.325Z,7.63
2022-08-26T09:22:02.236Z,5.88
2022-08-26T09:24:42.038Z,5.22
2022-08-26T09:27:41.397Z,6.25
2022-08-26T09:30:25.405Z,7.93
2022-08-26T09:33:10.928Z,8.43
2022-08-26T09:35:47.643Z,7.22
2022-08-26T09:38:34.619Z,5.88
2022-08-26T09:41:08.858Z,6.63
2022-08-26T09:43:36.747Z,5.43
2022-08-26T09:46:28.176Z,7.88
2022-08-26T09:48:56.234Z,3.60
2022-08-26T09:51:42.034Z,6.25
2022-08-26T09:54:30.171Z,5.10
2022-08-26T09:57:26.070Z,5.00
2022-08-26T09:59:53.952Z,5.53
2022-08-26T10:02:33.791Z,5.47
2022-08-26T10:05:09.334Z,4.72
2022-08-26T10:07:51.379Z,4.60
2022-08-26T10:10:22.209Z,6.63
2022-08-26T10:13:23.574Z,7.65
2022-08-26T10:16:21.202Z,5.85
2022-08-26T10:19:13.457Z,5.57
2022-08-26T10:22:00.241Z,5.78
2022-08-26T10:24:44.008Z,5.32
2022-08-26T10:27:44.559Z,4.72
2022-08-26T10:30:23.868Z,4.25
2022-08-26T10:33:00.859Z,5.50
2022-08-26T10:35:30.971Z,3.95
2022-08-26T10:38:08.218Z,3.92
2022-08-26T10:41:20.694Z,5.05
2022-08-26T10:43:59.343Z,4.07
2022-08-26T10:46:55.680Z,4.05
2022-08-26T10:49:23.052Z,4.35
2022-08-26T10:52:16.412Z,6.18
2022-08-26T10:54:59.788Z,3.42
2022-08-26T10:57:55.661Z,3.75
2022-08-26T11:00:51.580Z,5.20
2022-08-26T11:03:40.345Z,4.50
2022-08-26T11:06:23.483Z,5.03
2022-08-26T11:08:57.912Z,4.65
2022-08-26T11:11:42.123Z,4.20
2022-08-26T11:14:16.444Z,5.82
2022-08-26T11:16:57.630Z,3.58
2022-08-26T11:19:59.542Z,2.88
2022-08-26T11:22:47.598Z,4.95
2022-08-26T11:25:18.448Z,4.10
2022-08-26T11:27:49.946Z,3.95
2022-08-26T11:30:18.564Z,3.88
2022-08-26T11:32:59.254Z,3.97
2022-08-26T11:35:27.198Z,5.05
2022-08-26T11:37:59.135Z,3.78
2022-08-26T11:40:38.629Z,3.40
2022-08-26T11:43:23.212Z,2.60
2022-08-26T11:46:07.859Z,3.50
2022-08-26T11:48:41.493Z,5.97
2022-08-26T11:51:10.352Z,4.43
2022-08-26T11:53:42.718Z,5.55
2022-08-26T11:56:31.665Z,6.43
2022-08-26T11:59:04.444Z,4.60
2022-08-26T12:01:38.036Z,5.05
2022-08-26T12:04:12.854Z,6.70
2022-08-26T12:06:51.362Z,3.30
2022-08-26T12:09:30.329Z,7.72
2022-08-26T12:12:23.600Z,4.00
2022-08-26T12:15:10.707Z,3.08
2022-08-26T12:17:40.776Z,5.57
2022-08-26T12:20:48.475Z,5.10
2022-08-26T12:23:36.475Z,2.70
2022-08-26T12:26:20.014Z,4.38
2022-08-26T12:29:26.523Z,3.40
2022-08-26T12:32:14.712Z,3.72
2022-08-26T12:34:45.512Z,3.50
2022-08-26T12:37:15.584Z,5.63
2022-08-26T12:39:45.034Z,3.17
2022-08-26T12:42:15.994Z,5.35
2022-08-26T12:44:58.633Z,5.22
2022-08-26T12:47:44.304Z,3.55
2022-08-26T12:50:33.473Z,4.25
2022-08-26T12:53:17.822Z,5.65
2022-08-26T12:55:58.702Z,3.50
2022-08-26T12:58:38.838Z,3.72
2022-08-26T13:01:09.028Z,4.70
2022-08-26T13:03:38.778Z,3.55
2022-08-26T13:06:22.247Z,5.45
2022-08-26T13:08:52.804Z,5.15
2022-08-26T13:11:39.925Z,8.02
2022-08-26T13:14:24.048Z,3.80
2022-08-26T13:16:53.630Z,3.63
2022-08-26T13:19:29.214Z,4.80
2022-08-26T13:22:00.362Z,6.40
2022-08-26T13:24:42.094Z,5.53
2022-08-26T13:27:14.122Z,3.20
2022-08-26T13:29:42.307Z,3.70
2022-08-26T13:32:10.017Z,5.40
2022-08-26T13:34:38.850Z,3.78
2022-08-26T13:37:07.271Z,3.38
2022-08-26T13:39:34.708Z,4.07
2022-08-26T13:42:02.045Z,5.80
2022-08-26T13:44:29.693Z,6.25
2022-08-26T13:46:57.038Z,5.10
2022-08-26T13:49:24.291Z,6.35
2022-08-26T13:51:51.917Z,4.88
2022-08-26T13:54:19.343Z,6.15
2022-08-26T13:56:46.677Z,5.32
2022-08-26T13:59:15.102Z,5.40
2022-08-26T14:01:42.482Z,5.88
2022-08-26T14:04:09.870Z,4.90
2022-08-26T14:06:37.534Z,7.15
2022-08-26T14:09:05.396Z,3.88
2022-08-26T14:11:41.194Z,6.05
2022-08-26T14:14:18.586Z,4.05
2022-08-26T14:16:59.803Z,4.03
2022-08-26T14:19:30.127Z,3.35
2022-08-26T14:21:57.862Z,2.92
2022-08-26T14:24:25.172Z,4.53
2022-08-26T14:26:52.728Z,4.07
2022-08-26T14:29:20.330Z,5.28
2022-08-26T14:31:48.664Z,5.85
2022-08-26T14:34:16.471Z,4.80
2022-08-26T14:36:43.816Z,5.18
2022-08-26T14:39:14.435Z,6.18
2022-08-26T14:41:54.549Z,4.70
2022-08-26T14:44:31.290Z,4.80
2022-08-26T14:47:02.922Z,4.97
2022-08-26T14:49:31.859Z,7.25
2022-08-26T14:51:59.736Z,5.35
2022-08-26T14:54:28.971Z,3.20
2022-08-26T14:57:01.886Z,6.65
2022-08-26T14:59:36.378Z,5.78
2022-08-26T15:02:05.790Z,3.13
2022-08-26T15:04:34.152Z,8.25
2022-08-26T15:07:03.411Z,5.18
2022-08-26T15:09:35.275Z,5.47
2022-08-26T15:12:04.944Z,5.38
2022-08-26T15:14:33.149Z,7.30
2022-08-26T15:17:01.070Z,3.30
2022-08-26T15:19:30.367Z,5.97
2022-08-26T15:21:57.666Z,5.70
2022-08-26T15:24:26.782Z,4.25
2022-08-26T15:26:54.822Z,5.15
2022-08-26T15:29:24.260Z,5.05
2022-08-26T15:31:52.364Z,6.88
2022-08-26T15:34:24.673Z,5.00
2022-08-26T15:36:51.971Z,4.70
2022-08-26T15:39:20.067Z,4.70
2022-08-26T15:41:47.731Z,4.93
2022-08-26T15:44:17.111Z,3.70
2022-08-26T15:46:44.841Z,5.07
2022-08-26T15:49:16.978Z,4.43
2022-08-26T15:51:50.474Z,4.78
2022-08-26T15:54:23.438Z,4.22
2022-08-26T15:56:52.500Z,5.13
2022-08-26T15:59:21.886Z,3.90
2022-08-26T16:01:50.918Z,6.10
2022-08-26T16:04:18.796Z,6.75
2022-08-26T16:06:50.432Z,6.43
2022-08-26T16:09:26.992Z,5.63
2022-08-26T16:11:58.770Z,10.80
2022-08-26T16:14:26.692Z,4.72
2022-08-26T16:16:54.357Z,8.73
2022-08-26T16:19:22.435Z,8.43
2022-08-26T16:21:51.561Z,10.05
2022-08-26T16:24:28.366Z,9.27
2022-08-26T16:26:57.888Z,5.80
2022-08-26T16:29:25.419Z,5.72
2022-08-26T16:31:54.822Z,5.05
2022-08-26T16:34:22.872Z,4.90
2022-08-26T16:36:52.412Z,8.50
2022-08-26T16:39:20.268Z,6.20
2022-08-26T16:41:47.787Z,3.85
2022-08-26T16:44:16.638Z,5.22
2022-08-26T16:46:45.925Z,6.82
2022-08-26T16:49:14.315Z,5.05
2022-08-26T16:51:41.984Z,6.05
2022-08-26T16:54:09.760Z,5.88
2022-08-26T16:56:38.294Z,7.47
2022-08-26T16:59:11.639Z,5.35
2022-08-26T17:01:39.392Z,5.78
2022-08-26T17:04:06.989Z,5.78
2022-08-26T17:06:34.454Z,4.65
2022-08-26T17:09:02.461Z,4.60
2022-08-26T17:11:30.250Z,7.07
2022-08-26T17:13:57.783Z,7.13
2022-08-26T17:16:27.081Z,6.40
2022-08-26T17:18:57.788Z,7.75
2022-08-26T17:21:26.848Z,5.25
2022-08-26T17:23:55.306Z,6.25
2022-08-26T17:26:22.741Z,7.40
2022-08-26T17:28:51.341Z,5.57
2022-08-26T17:31:20.550Z,4.60
2022-08-26T17:33:53.542Z,5.15
2022-08-26T17:36:28.015Z,7.88
2022-08-26T17:38:57.892Z,5.88
2022-08-26T17:41:27.255Z,5.38
2022-08-26T17:43:55.198Z,4.05
2022-08-26T17:46:23.351Z,6.10
2022-08-26T17:48:51.432Z,7.03
2022-08-26T17:51:19.936Z,6.15
2022-08-26T17:53:48.798Z,6.47
2022-08-26T17:56:20.155Z,5.88
2022-08-26T17:58:51.136Z,6.00
2022-08-26T18:01:22.110Z,9.07
2022-08-26T18:03:50.756Z,7.07
2022-08-26T18:06:19.215Z,6.60
2022-08-26T18:08:47.461Z,7.47
2022-08-26T18:11:19.635Z,9.48
2022-08-26T18:13:47.921Z,6.85
2022-08-26T18:16:18.200Z,7.10
2022-08-26T18:18:48.151Z,8.60
2022-08-26T18:21:21.240Z,5.05
2022-08-26T18:23:51.053Z,6.25
2022-08-26T18:26:31.662Z,5.88
2022-08-26T18:28:59.951Z,5.32
2022-08-26T18:31:28.666Z,5.90
2022-08-26T18:33:57.293Z,5.78
2022-08-26T18:36:32.598Z,8.75
2022-08-26T18:39:00.903Z,12.63
2022-08-26T18:41:32.150Z,11.48
2022-08-26T18:44:00.136Z,13.20
2022-08-26T18:46:28.527Z,11.45
2022-08-26T18:48:57.584Z,12.00
2022-08-26T18:51:33.060Z,13.57
2022-08-26T18:54:04.590Z,17.38
2022-08-26T18:56:33.756Z,16.52
2022-08-26T18:59:02.131Z,16.50
2022-08-26T19:01:32.070Z,17.00
2022-08-26T19:04:03.124Z,13.80
2022-08-26T19:06:35.597Z,17.13
2022-08-26T19:09:07.034Z,12.98
2022-08-26T19:11:42.833Z,10.82
2022-08-26T19:14:16.284Z,12.40
2022-08-26T19:16:49.665Z,8.18
2022-08-26T19:19:17.455Z,13.30
2022-08-26T19:21:45.820Z,10.60
2022-08-26T19:24:17.647Z,9.05
2022-08-26T19:26:49.127Z,10.57
2022-08-26T19:29:28.384Z,9.18
2022-08-26T19:31:56.683Z,12.55
2022-08-26T19:34:24.640Z,10.30
2022-08-26T19:36:54.264Z,11.05
2022-08-26T19:39:21.972Z,14.23
2022-08-26T19:41:49.577Z,12.98
2022-08-26T19:44:38.547Z,10.93
2022-08-26T19:47:10.573Z,12.88
2022-08-26T19:49:38.857Z,15.07
2022-08-26T19:52:08.989Z,12.18
2022-08-26T19:54:37.782Z,15.70
2022-08-26T19:57:05.981Z,15.02
2022-08-26T19:59:33.279Z,15.73
2022-08-26T20:02:02.253Z,14.40
2022-08-26T20:04:33.645Z,14.02
2022-08-26T20:07:02.418Z,16.45
2022-08-26T20:09:32.772Z,19.33
2022-08-26T20:12:00.695Z,18.10
2022-08-26T20:14:28.687Z,21.83
2022-08-26T20:16:56.667Z,17.98
2022-08-26T20:19:42.818Z,19.75
2022-08-26T20:22:11.227Z,20.92
2022-08-26T20:24:38.684Z,17.23
2022-08-26T20:27:07.950Z,18.50
2022-08-26T20:29:37.300Z,13.77
2022-08-26T20:32:07.236Z,13.73
2022-08-26T20:34:36.733Z,12.88
2022-08-26T20:37:05.317Z,13.50
2022-08-26T20:39:32.733Z,12.38
2022-08-26T20:42:00.081Z,10.80
2022-08-26T20:44:27.790Z,14.07
2022-08-26T20:47:13.473Z,12.45
2022-08-26T20:49:41.239Z,9.50
2022-08-26T20:52:10.967Z,13.95
2022-08-26T20:54:38.481Z,12.65
2022-08-26T20:57:06.513Z,10.80
2022-08-26T20:59:34.200Z,11.02
2022-08-26T21:02:01.804Z,11.40
2022-08-26T21:04:29.364Z,12.18
2022-08-26T21:06:56.903Z,7.75
2022-08-26T21:09:27.442Z,8.00
2022-08-26T21:11:56.717Z,8.05
2022-08-26T21:14:25.863Z,8.27
2022-08-26T21:16:54.453Z,11.73
2022-08-26T21:19:22.326Z,9.50
2022-08-26T21:21:50.091Z,7.75
2022-08-26T21:24:18.247Z,12.38
2022-08-26T21:26:46.405Z,9.65
2022-08-26T21:29:14.640Z,8.85
2022-08-26T21:31:46.383Z,8.57
2022-08-26T21:34:19.554Z,9.50
2022-08-26T21:36:48.426Z,12.38
2022-08-26T21:39:17.181Z,11.20
2022-08-26T21:41:46.271Z,8.70
2022-08-26T21:44:16.804Z,9.18
2022-08-26T21:46:46.820Z,9.30
2022-08-26T21:49:16.269Z,10.80
2022-08-26T21:51:48.660Z,11.30
2022-08-26T21:54:18.192Z,11.65
2022-08-26T21:56:47.674Z,9.10
2022-08-26T21:59:18.750Z,8.98
2022-08-26T22:01:47.719Z,8.32
2022-08-26T22:04:16.291Z,11.45
2022-08-26T22:06:51.768Z,12.90
2022-08-26T22:09:27.892Z,13.20
2022-08-26T22:11:56.968Z,12.52
2022-08-26T22:14:30.392Z,9.88
2022-08-26T22:17:00.138Z,7.65
2022-08-26T22:19:28.217Z,8.20
2022-08-26T22:21:57.872Z,7.80
2022-08-26T22:24:27.352Z,8.75
2022-08-26T22:26:56.212Z,7.95
2022-08-26T22:29:25.266Z,8.10
2022-08-26T22:31:53.201Z,6.95
2022-08-26T22:34:23.042Z,6.25
2022-08-26T22:36:50.759Z,8.20
2022-08-26T22:39:24.786Z,6.43
2022-08-26T22:41:54.418Z,8.77
2022-08-26T22:44:23.419Z,8.38
2022-08-26T22:46:54.422Z,7.75
2022-08-26T22:49:22.557Z,6.32
2022-08-26T22:51:51.111Z,5.82
2022-08-26T22:54:18.405Z,6.43
2022-08-26T22:56:46.068Z,7.35
2022-08-26T22:59:13.622Z,6.90
2022-08-26T23:01:43.453Z,6.65
2022-08-26T23:04:12.053Z,6.95
2022-08-26T23:06:43.348Z,9.88
2022-08-26T23:09:18.602Z,7.85
2022-08-26T23:11:48.630Z,7.43
2022-08-26T23:14:19.170Z,6.20
2022-08-26T23:16:47.742Z,6.93
2022-08-26T23:19:18.429Z,6.63
2022-08-26T23:21:47.526Z,7.47
2022-08-26T23:24:15.832Z,7.35
2022-08-26T23:26:44.932Z,6.50
2022-08-26T23:29:15.726Z,6.25
2022-08-26T23:31:43.322Z,9.77
2022-08-26T23:34:30.281Z,5.82
2022-08-26T23:36:59.314Z,5.50
2022-08-26T23:39:28.976Z,8.50
2022-08-26T23:41:57.034Z,5.50
2022-08-26T23:44:26.717Z,6.05
2022-08-26T23:46:54.938Z,6.40
2022-08-26T23:49:22.626Z,9.00
2022-08-26T23:52:08.932Z,7.97
2022-08-26T23:54:37.406Z,8.50
2022-08-26T23:57:06.636Z,7.97
2022-08-26T23:59:34.468Z,7.15
